createdAt,value
2019-02-10T00:00:15.395Z,48.50
2019-02-10T00:03:20.379Z,48.90
2019-02-10T00:06:25.203Z,49.30
2019-02-10T00:09:30.039Z,48.90
2019-02-10T00:12:34.894Z,48.80
2019-02-10T00:15:39.726Z,49.10
2019-02-10T00:18:44.584Z,49.40
2019-02-10T00:21:49.393Z,49.10
2019-02-10T00:24:54.206Z,49.40
2019-02-10T00:27:59.034Z,49.30
2019-02-10T00:31:03.870Z,50.20
2019-02-10T00:34:08.716Z,49.80
2019-02-10T00:37:13.538Z,50.00
2019-02-10T00:40:18.365Z,50.40
2019-02-10T00:43:23.201Z,50.80
2019-02-10T00:46:28.095Z,50.90
2019-02-10T00:49:32.902Z,51.30
2019-02-10T00:52:37.738Z,51.20
2019-02-10T00:55:42.578Z,51.40
2019-02-10T00:58:48.129Z,52.00
2019-02-10T01:01:52.935Z,51.70
2019-02-10T01:04:57.740Z,51.90
2019-02-10T01:08:02.603Z,52.10
2019-02-10T01:11:07.431Z,52.40
2019-02-10T01:14:12.442Z,52.80
2019-02-10T01:17:17.315Z,53.10
2019-02-10T01:20:22.201Z,53.70
2019-02-10T01:23:27.017Z,54.40
2019-02-10T01:26:31.958Z,54.70
2019-02-10T01:29:36.787Z,55.20
2019-02-10T01:32:41.605Z,55.80
2019-02-10T01:35:46.396Z,55.80
2019-02-10T01:38:51.209Z,56.40
2019-02-10T01:41:56.018Z,57.10
2019-02-10T01:45:00.906Z,58.00
2019-02-10T01:48:06.697Z,58.40
2019-02-10T01:51:11.497Z,58.20
2019-02-10T01:54:16.313Z,59.00
2019-02-10T01:57:21.114Z,59.50
2019-02-10T02:00:25.954Z,59.80
2019-02-10T02:03:31.750Z,59.80
2019-02-10T02:06:36.561Z,60.00
2019-02-10T02:09:41.385Z,59.90
2019-02-10T02:12:46.214Z,60.20
2019-02-10T02:15:51.024Z,60.40
2019-02-10T02:18:56.007Z,60.30
2019-02-10T02:22:00.980Z,60.50
2019-02-10T02:25:08.902Z,60.90
2019-02-10T02:28:13.770Z,60.70
2019-02-10T02:31:18.591Z,60.60
2019-02-10T02:34:23.415Z,60.80
2019-02-10T02:37:28.262Z,60.90
2019-02-10T02:40:33.060Z,60.40
2019-02-10T02:43:37.974Z,60.40
2019-02-10T02:46:42.869Z,60.60
2019-02-10T02:49:47.706Z,61.00
2019-02-10T02:52:52.518Z,60.40
2019-02-10T02:55:57.321Z,59.10
2019-02-10T02:59:02.165Z,60.50
2019-02-10T03:02:06.962Z,60.40
2019-02-10T03:05:11.798Z,60.50
2019-02-10T03:08:16.613Z,60.20
2019-02-10T03:11:21.421Z,60.60
2019-02-10T03:14:27.234Z,60.60
2019-02-10T03:17:32.064Z,61.00
2019-02-10T03:20:36.901Z,60.60
2019-02-10T03:23:41.731Z,60.70
2019-02-10T03:26:46.567Z,61.30
2019-02-10T03:29:51.410Z,61.00
2019-02-10T03:32:56.255Z,60.90
2019-02-10T03:36:01.168Z,61.10
2019-02-10T03:39:06.331Z,61.30
2019-02-10T03:42:11.143Z,61.50
2019-02-10T03:45:15.982Z,61.10
2019-02-10T03:48:20.824Z,61.30
2019-02-10T03:51:25.660Z,60.70
2019-02-10T03:54:30.457Z,61.60
2019-02-10T03:57:35.643Z,61.10
2019-02-10T04:00:40.543Z,61.00
2019-02-10T04:03:45.355Z,61.80
2019-02-10T04:06:50.174Z,61.00
2019-02-10T04:09:55.061Z,60.90
2019-02-10T04:12:59.892Z,61.10
2019-02-10T04:16:04.701Z,61.50
2019-02-10T04:19:09.537Z,61.60
2019-02-10T04:22:15.363Z,61.40
2019-02-10T04:25:20.181Z,61.30
2019-02-10T04:28:25.003Z,61.20
2019-02-10T04:31:29.847Z,61.50
2019-02-10T04:34:34.680Z,61.10
2019-02-10T04:37:45.570Z,61.30
2019-02-10T04:40:46.077Z,62.00
2019-02-10T04:43:50.954Z,61.80
2019-02-10T04:46:55.814Z,62.10
2019-02-10T04:50:00.650Z,61.70
2019-02-10T04:53:05.461Z,62.00
2019-02-10T04:56:15.250Z,61.90
2019-02-10T04:59:20.068Z,62.00
2019-02-10T05:02:24.872Z,61.90
2019-02-10T05:05:29.721Z,61.80
2019-02-10T05:08:34.551Z,62.10
2019-02-10T05:11:39.370Z,62.20
2019-02-10T05:14:44.230Z,61.90
2019-02-10T05:17:49.040Z,62.20
2019-02-10T05:20:53.900Z,62.10
2019-02-10T05:24:03.498Z,62.40
2019-02-10T05:27:05.238Z,62.10
2019-02-10T05:30:10.075Z,62.20
2019-02-10T05:33:14.916Z,62.30
2019-02-10T05:36:19.726Z,62.30
2019-02-10T05:39:24.562Z,62.20
2019-02-10T05:42:29.381Z,62.30
2019-02-10T05:45:34.251Z,62.10
2019-02-10T05:48:39.107Z,62.20
2019-02-10T05:51:44.012Z,62.00
2019-02-10T05:54:48.923Z,61.80
2019-02-10T05:57:53.772Z,62.00
2019-02-10T06:01:17.867Z,61.90
2019-02-10T06:04:22.684Z,61.90
2019-02-10T06:07:27.486Z,61.60
2019-02-10T06:10:32.306Z,61.40
2019-02-10T06:13:37.110Z,61.40
2019-02-10T06:16:41.931Z,61.20
2019-02-10T06:19:46.774Z,60.90
2019-02-10T06:22:51.598Z,60.70
2019-02-10T06:25:56.446Z,60.90
2019-02-10T06:29:01.242Z,60.60
2019-02-10T06:32:06.405Z,59.90
2019-02-10T06:35:11.232Z,59.70
2019-02-10T06:38:22.215Z,60.20
2019-02-10T06:41:22.603Z,59.80
2019-02-10T06:44:27.496Z,60.00
2019-02-10T06:47:32.330Z,60.00
2019-02-10T06:50:37.349Z,59.30
2019-02-10T06:53:42.195Z,60.40
2019-02-10T06:56:47.041Z,59.80
2019-02-10T06:59:53.490Z,59.20
2019-02-10T07:03:28.008Z,59.10
2019-02-10T07:06:32.837Z,59.00
2019-02-10T07:09:37.641Z,59.00
2019-02-10T07:12:47.457Z,59.10
2019-02-10T07:16:29.034Z,59.20
2019-02-10T07:20:10.458Z,59.30
2019-02-10T07:23:52.449Z,58.50
2019-02-10T07:27:00.019Z,57.70
2019-02-10T07:30:07.913Z,58.30
2019-02-10T07:33:21.521Z,58.00
2019-02-10T07:36:41.610Z,57.70
2019-02-10T07:40:10.706Z,57.90
2019-02-10T07:43:21.734Z,57.80
2019-02-10T07:46:47.994Z,57.70
2019-02-10T07:50:10.245Z,57.80
2019-02-10T07:53:32.777Z,58.00
2019-02-10T07:56:43.434Z,58.20
2019-02-10T08:00:00.299Z,58.10
2019-02-10T08:03:10.957Z,58.50
2019-02-10T08:06:24.809Z,57.90
2019-02-10T08:09:50.758Z,57.90
2019-02-10T08:13:22.609Z,58.50
2019-02-10T08:16:47.851Z,57.40
2019-02-10T08:20:29.368Z,57.70
2019-02-10T08:24:03.921Z,57.90
2019-02-10T08:27:14.302Z,58.90
2019-02-10T08:30:41.677Z,59.80
2019-02-10T08:33:57.225Z,60.00
2019-02-10T08:37:10.752Z,60.70
2019-02-10T08:40:33.033Z,61.20
2019-02-10T08:43:43.965Z,62.80
2019-02-10T08:47:00.642Z,62.60
2019-02-10T08:50:26.671Z,64.10
2019-02-10T08:53:31.480Z,64.40
2019-02-10T08:56:36.649Z,65.50
2019-02-10T08:59:41.545Z,65.30
2019-02-10T09:02:46.368Z,67.10
2019-02-10T09:05:51.190Z,67.00
2019-02-10T09:09:02.421Z,68.70
2019-02-10T09:12:02.560Z,68.40
2019-02-10T09:15:10.614Z,68.70
2019-02-10T09:18:15.470Z,69.90
2019-02-10T09:21:20.302Z,70.10
2019-02-10T09:24:25.117Z,71.70
2019-02-10T09:27:29.965Z,72.50
2019-02-10T09:30:34.782Z,72.10
2019-02-10T09:33:39.635Z,72.60
2019-02-10T09:36:44.481Z,73.70
2019-02-10T09:39:49.307Z,73.80
2019-02-10T09:42:54.166Z,73.60
2019-02-10T09:45:59.015Z,72.30
2019-02-10T09:49:03.867Z,73.60
2019-02-10T09:52:08.718Z,73.80
2019-02-10T09:55:13.595Z,74.30
2019-02-10T09:58:18.418Z,74.50
2019-02-10T10:01:23.273Z,75.30
2019-02-10T10:04:28.086Z,74.90
2019-02-10T10:07:32.905Z,74.50
2019-02-10T10:10:37.751Z,75.60
2019-02-10T10:13:42.558Z,75.40
2019-02-10T10:16:47.406Z,75.90
2019-02-10T10:19:54.919Z,76.20
2019-02-10T10:22:59.801Z,76.00
2019-02-10T10:26:04.641Z,76.60
2019-02-10T10:29:09.498Z,75.90
2019-02-10T10:32:14.331Z,75.60
2019-02-10T10:35:19.175Z,75.30
2019-02-10T10:38:23.989Z,75.90
2019-02-10T10:41:28.839Z,75.90
2019-02-10T10:44:33.672Z,76.50
2019-02-10T10:47:38.527Z,76.70
2019-02-10T10:50:43.355Z,76.10
2019-02-10T10:53:48.250Z,76.50
2019-02-10T10:56:53.077Z,76.20
2019-02-10T10:59:59.485Z,76.50
2019-02-10T11:03:04.370Z,76.50
2019-02-10T11:06:09.255Z,76.60
2019-02-10T11:09:14.099Z,76.10
2019-02-10T11:12:19.020Z,76.10
2019-02-10T11:15:23.855Z,76.50
2019-02-10T11:18:28.716Z,75.80
2019-02-10T11:21:33.543Z,76.30
2019-02-10T11:24:44.794Z,77.10
2019-02-10T11:27:49.615Z,77.50
2019-02-10T11:30:54.450Z,76.50
2019-02-10T11:33:59.298Z,77.30
2019-02-10T11:37:04.128Z,77.10
2019-02-10T11:40:12.754Z,77.40
2019-02-10T11:43:18.668Z,77.70
2019-02-10T11:46:23.560Z,77.10
2019-02-10T11:49:28.381Z,77.90
2019-02-10T11:52:33.330Z,77.90
2019-02-10T11:55:38.166Z,77.40
2019-02-10T11:58:43.078Z,77.60
2019-02-10T12:01:47.887Z,77.90
2019-02-10T12:04:52.721Z,77.50
2019-02-10T12:07:57.529Z,77.30
2019-02-10T12:11:02.363Z,76.50
2019-02-10T12:14:07.167Z,76.30
2019-02-10T12:17:12.025Z,76.70
2019-02-10T12:20:17.122Z,75.90
2019-02-10T12:23:21.996Z,76.20
2019-02-10T12:26:26.891Z,76.50
2019-02-10T12:29:32.647Z,76.00
2019-02-10T12:32:37.511Z,76.10
2019-02-10T12:35:42.427Z,76.00
2019-02-10T12:38:47.262Z,75.10
2019-02-10T12:41:52.099Z,75.90
2019-02-10T12:44:56.950Z,75.90
2019-02-10T12:48:01.754Z,76.10
2019-02-10T12:51:06.573Z,74.80
2019-02-10T12:54:11.392Z,74.30
2019-02-10T12:57:16.230Z,74.30
2019-02-10T13:00:21.181Z,75.20
2019-02-10T13:03:25.985Z,75.10
2019-02-10T13:06:30.871Z,75.20
2019-02-10T13:09:35.703Z,74.80
2019-02-10T13:12:40.546Z,75.20
2019-02-10T13:15:45.346Z,74.50
2019-02-10T13:18:50.202Z,74.70
2019-02-10T13:21:55.024Z,74.90
2019-02-10T13:24:59.890Z,75.30
2019-02-10T13:28:04.806Z,75.00
2019-02-10T13:31:09.603Z,75.10
2019-02-10T13:34:14.452Z,75.30
2019-02-10T13:37:19.267Z,75.30
2019-02-10T13:40:24.114Z,75.00
2019-02-10T13:43:33.559Z,74.10
2019-02-10T13:46:35.471Z,74.20
2019-02-10T13:49:40.312Z,74.20
2019-02-10T13:52:45.117Z,73.30
2019-02-10T13:55:49.959Z,73.50
2019-02-10T13:58:54.785Z,74.50
2019-02-10T14:01:59.600Z,74.10
2019-02-10T14:05:05.645Z,74.50
2019-02-10T14:08:10.488Z,75.00
2019-02-10T14:11:15.290Z,75.70
2019-02-10T14:14:20.105Z,75.90
2019-02-10T14:17:24.978Z,75.60
2019-02-10T14:20:29.867Z,75.30
2019-02-10T14:23:34.999Z,75.30
2019-02-10T14:26:39.806Z,76.00
2019-02-10T14:29:44.618Z,76.80
2019-02-10T14:32:49.419Z,76.40
2019-02-10T14:35:54.267Z,76.10
2019-02-10T14:38:59.173Z,76.00
2019-02-10T14:42:03.981Z,75.00
2019-02-10T14:45:12.868Z,75.70
2019-02-10T14:48:17.870Z,76.50
2019-02-10T14:51:22.702Z,76.10
2019-02-10T14:54:27.588Z,76.90
2019-02-10T14:57:32.430Z,76.80
2019-02-10T15:00:37.299Z,77.50
2019-02-10T15:03:42.137Z,77.50
2019-02-10T15:06:46.970Z,77.90
2019-02-10T15:09:51.813Z,78.20
2019-02-10T15:12:57.022Z,78.10
2019-02-10T15:16:01.858Z,77.40
2019-02-10T15:19:06.753Z,77.80
2019-02-10T15:22:11.624Z,78.40
2019-02-10T15:25:16.441Z,79.00
2019-02-10T15:28:22.270Z,79.20
2019-02-10T15:31:27.153Z,78.50
2019-02-10T15:34:31.951Z,78.90
2019-02-10T15:37:36.777Z,78.80
2019-02-10T15:40:49.534Z,78.80
2019-02-10T15:43:48.131Z,77.90
2019-02-10T15:46:52.974Z,77.90
2019-02-10T15:49:57.786Z,78.90
2019-02-10T15:53:02.597Z,78.40
2019-02-10T15:56:07.473Z,78.10
2019-02-10T15:59:12.394Z,77.70
2019-02-10T16:02:17.270Z,77.90
2019-02-10T16:05:22.065Z,78.40
2019-02-10T16:08:26.937Z,78.40
2019-02-10T16:11:31.769Z,77.70
2019-02-10T16:14:36.585Z,77.80
2019-02-10T16:17:41.474Z,77.50
2019-02-10T16:20:46.302Z,76.00
2019-02-10T16:23:51.146Z,75.80
2019-02-10T16:26:55.945Z,75.70
2019-02-10T16:30:00.826Z,75.70
2019-02-10T16:33:05.645Z,76.10
2019-02-10T16:36:10.474Z,77.00
2019-02-10T16:39:15.316Z,77.30
2019-02-10T16:42:20.113Z,77.00
2019-02-10T16:45:24.967Z,76.90
2019-02-10T16:48:29.831Z,77.10
2019-02-10T16:51:34.685Z,76.40
2019-02-10T16:54:39.557Z,75.50
2019-02-10T16:57:44.420Z,76.80
2019-02-10T17:00:50.073Z,75.80
2019-02-10T17:03:54.977Z,75.50
2019-02-10T17:06:59.886Z,75.70
2019-02-10T17:10:07.717Z,75.40
2019-02-10T17:13:12.539Z,74.90
2019-02-10T17:16:18.267Z,75.10
2019-02-10T17:19:23.159Z,74.00
2019-02-10T17:22:28.062Z,73.80
2019-02-10T17:25:32.948Z,74.60
2019-02-10T17:28:37.789Z,73.40
2019-02-10T17:31:42.626Z,72.90
2019-02-10T17:34:47.470Z,72.50
2019-02-10T17:37:52.318Z,72.30
2019-02-10T17:41:02.673Z,72.00
2019-02-10T17:44:07.782Z,72.00
2019-02-10T17:47:12.576Z,71.50
2019-02-10T17:50:17.438Z,70.40
2019-02-10T17:53:22.262Z,70.50
2019-02-10T17:56:27.069Z,69.70
2019-02-10T17:59:31.903Z,68.90
2019-02-10T18:02:36.738Z,69.30
2019-02-10T18:05:41.561Z,67.90
2019-02-10T18:08:46.453Z,68.00
2019-02-10T18:11:52.542Z,67.90
2019-02-10T18:14:58.993Z,66.60
2019-02-10T18:18:05.440Z,66.00
2019-02-10T18:21:11.885Z,65.80
2019-02-10T18:24:18.337Z,65.20
2019-02-10T18:27:27.198Z,64.80
2019-02-10T18:30:39.892Z,65.60
2019-02-10T18:33:49.133Z,64.70
2019-02-10T18:36:55.902Z,64.60
2019-02-10T18:40:11.562Z,64.80
2019-02-10T18:43:17.999Z,65.10
2019-02-10T18:46:27.365Z,65.10
2019-02-10T18:49:36.705Z,65.10
2019-02-10T18:52:43.186Z,65.80
2019-02-10T18:55:52.334Z,67.20
2019-02-10T18:59:04.606Z,67.70
2019-02-10T19:02:11.150Z,68.50
2019-02-10T19:05:17.620Z,69.50
2019-02-10T19:08:32.819Z,68.50
2019-02-10T19:11:51.261Z,69.90
2019-02-10T19:15:03.724Z,69.50
2019-02-10T19:18:16.030Z,68.80
2019-02-10T19:21:22.938Z,70.20
2019-02-10T19:24:29.397Z,70.80
2019-02-10T19:27:38.819Z,68.20
2019-02-10T19:30:48.105Z,68.80
2019-02-10T19:34:06.711Z,69.30
2019-02-10T19:37:25.475Z,68.80
2019-02-10T19:40:32.205Z,69.40
2019-02-10T19:43:41.359Z,68.10
2019-02-10T19:47:03.718Z,69.10
2019-02-10T19:50:10.349Z,68.60
2019-02-10T19:53:16.855Z,68.70
2019-02-10T19:56:26.122Z,69.30
2019-02-10T19:59:38.258Z,69.40
2019-02-10T20:03:00.643Z,69.40
2019-02-10T20:06:09.931Z,69.30
2019-02-10T20:09:31.816Z,70.70
2019-02-10T20:12:47.422Z,70.80
2019-02-10T20:15:53.918Z,70.00
2019-02-10T20:19:09.398Z,70.10
2019-02-10T20:22:16.229Z,70.30
2019-02-10T20:25:36.238Z,71.00
2019-02-10T20:28:51.558Z,70.60
2019-02-10T20:31:57.977Z,71.00
2019-02-10T20:35:04.811Z,70.60
2019-02-10T20:38:17.488Z,71.10
2019-02-10T20:41:25.238Z,71.70
2019-02-10T20:44:43.522Z,70.10
2019-02-10T20:47:49.994Z,69.60
2019-02-10T20:51:08.809Z,70.20
2019-02-10T20:54:33.600Z,69.20
2019-02-10T20:57:42.731Z,69.30
2019-02-10T21:01:05.727Z,69.60
2019-02-10T21:04:24.025Z,69.50
2019-02-10T21:07:30.883Z,68.60
2019-02-10T21:10:37.377Z,69.20
2019-02-10T21:13:52.893Z,69.80
2019-02-10T21:16:59.354Z,69.40
2019-02-10T21:20:10.127Z,69.00
2019-02-10T21:23:25.308Z,68.90
2019-02-10T21:26:31.749Z,68.60
2019-02-10T21:29:50.429Z,68.00
2019-02-10T21:32:56.883Z,67.90
2019-02-10T21:36:03.408Z,67.30
2019-02-10T21:39:16.078Z,67.20
2019-02-10T21:42:28.874Z,66.00
2019-02-10T21:45:42.530Z,66.10
2019-02-10T21:48:48.814Z,64.70
2019-02-10T21:51:53.662Z,64.10
2019-02-10T21:54:58.486Z,64.30
2019-02-10T21:58:03.298Z,66.70
2019-02-10T22:01:09.164Z,66.70
2019-02-10T22:04:13.990Z,66.90
2019-02-10T22:07:18.832Z,67.80
2019-02-10T22:10:23.708Z,68.00
2019-02-10T22:13:28.550Z,67.70
2019-02-10T22:16:33.378Z,68.20
2019-02-10T22:19:38.218Z,67.50
2019-02-10T22:22:43.058Z,68.00
2019-02-10T22:25:47.894Z,68.10
2019-02-10T22:28:52.746Z,67.80
2019-02-10T22:31:59.387Z,69.00
2019-02-10T22:35:05.041Z,68.20
2019-02-10T22:38:09.942Z,68.60
2019-02-10T22:41:14.827Z,68.00
2019-02-10T22:44:19.714Z,66.80
2019-02-10T22:47:24.589Z,67.10
2019-02-10T22:50:29.434Z,67.30
2019-02-10T22:53:34.243Z,67.10
2019-02-10T22:56:39.058Z,66.50
2019-02-10T22:59:43.905Z,66.40
2019-02-10T23:02:48.733Z,64.70
2019-02-10T23:05:53.582Z,65.10
2019-02-10T23:08:58.483Z,64.00
2019-02-10T23:12:03.466Z,63.70
2019-02-10T23:15:08.545Z,61.80
2019-02-10T23:18:13.405Z,63.30
2019-02-10T23:21:18.234Z,62.60
2019-02-10T23:24:23.045Z,63.00
2019-02-10T23:27:27.990Z,62.00
2019-02-10T23:30:32.822Z,61.90
2019-02-10T23:33:37.659Z,61.60
2019-02-10T23:36:42.495Z,62.00
2019-02-10T23:39:47.436Z,62.70
2019-02-10T23:42:52.268Z,62.80
2019-02-10T23:45:57.174Z,63.10
2019-02-10T23:49:02.011Z,63.40
2019-02-10T23:52:06.819Z,64.40
2019-02-10T23:55:11.666Z,65.40
2019-02-10T23:58:16.473Z,66.30
